Archival Weather

Dane County Rgnl/Truax Fld

Madison, Wisconsin (KMSN)

Report from: Sunday, April 21, 2024 12:53 AM CDT
Current time: Tuesday, May 21, 2024 11:31 AM CDT

Current weather – Weather history – Daily summaries
Weather forecast

Temperature0.0°C (32.0°F)
Dew point-5.0°C (23.0°F)
Winds Calm
Visibility10 mi. (16.1 km)
Clouds Sky clear
Altimeter30.16 in.Hg (1021 mB)
Relative humidity69 %
Density altitude-2,074 ft. (-632 m)
Sea-level pressure102.2 kPa (1022 mB, 30.19 in.Hg)
Max temp last 6 hours2.8°C (37.0°F)
Min temp last 6 hours-0.6°C (30.9°F)
Max temp last 24 hours4.4°C (39.9°F)
Min temp last 24 hours-0.6°C (30.9°F)
Remarks Fully automated report
System requires maintenance
Automated weather observing station with precipitation discriminator
Pressure falling more slowly
Flight conditions Visual Meteorological Conditions
Raw dataKMSN 210553Z AUTO 00000KT 10SM CLR 00/M05 A3016 RMK AO2 SLP223 T00001050 10028 21006 400441006 56012 $
An error has occurred. This application may no longer respond until reloaded. Reload 🗙